sensor_id;sensor_type;location;lat;lon;timestamp;P1;durP1;ratioP1;P2;durP2;ratioP2
20729;SDS011;10526;50.850;12.928;2023-03-23T00:01:23;4.07;;;0.77;;
20729;SDS011;10526;50.850;12.928;2023-03-23T00:05:46;0.73;;;0.73;;
20729;SDS011;10526;50.850;12.928;2023-03-23T00:10:10;2.10;;;0.90;;
20729;SDS011;10526;50.850;12.928;2023-03-23T00:14:31;1.33;;;0.80;;
20729;SDS011;10526;50.850;12.928;2023-03-23T00:19:03;2.78;;;0.75;;
20729;SDS011;10526;50.850;12.928;2023-03-23T00:23:26;3.45;;;0.98;;
20729;SDS011;10526;50.850;12.928;2023-03-23T00:27:47;1.75;;;1.25;;
20729;SDS011;10526;50.850;12.928;2023-03-23T00:32:08;4.93;;;1.08;;
20729;SDS011;10526;50.850;12.928;2023-03-23T00:36:36;3.30;;;1.00;;
20729;SDS011;10526;50.850;12.928;2023-03-23T00:41:06;0.80;;;0.80;;
20729;SDS011;10526;50.850;12.928;2023-03-23T00:45:27;1.95;;;0.80;;
20729;SDS011;10526;50.850;12.928;2023-03-23T00:49:48;1.88;;;1.05;;
20729;SDS011;10526;50.850;12.928;2023-03-23T00:54:12;1.75;;;0.70;;
20729;SDS011;10526;50.850;12.928;2023-03-23T00:58:33;1.35;;;0.88;;
20729;SDS011;10526;50.850;12.928;2023-03-23T01:02:55;2.78;;;1.00;;
20729;SDS011;10526;50.850;12.928;2023-03-23T01:07:17;1.10;;;0.70;;
20729;SDS011;10526;50.850;12.928;2023-03-23T01:11:41;1.92;;;0.95;;
20729;SDS011;10526;50.850;12.928;2023-03-23T01:16:05;4.18;;;0.70;;
20729;SDS011;10526;50.850;12.928;2023-03-23T01:20:26;0.95;;;0.88;;
20729;SDS011;10526;50.850;12.928;2023-03-23T01:24:49;0.57;;;0.57;;
20729;SDS011;10526;50.850;12.928;2023-03-23T01:29:10;2.15;;;0.75;;
20729;SDS011;10526;50.850;12.928;2023-03-23T01:33:31;0.57;;;0.40;;
20729;SDS011;10526;50.850;12.928;2023-03-23T01:37:53;1.35;;;0.80;;
20729;SDS011;10526;50.850;12.928;2023-03-23T01:42:14;5.22;;;0.55;;
20729;SDS011;10526;50.850;12.928;2023-03-23T01:46:36;2.50;;;0.60;;
20729;SDS011;10526;50.850;12.928;2023-03-23T01:50:58;1.52;;;0.63;;
20729;SDS011;10526;50.850;12.928;2023-03-23T01:55:29;1.02;;;0.52;;
20729;SDS011;10526;50.850;12.928;2023-03-23T01:59:51;2.63;;;0.82;;
20729;SDS011;10526;50.850;12.928;2023-03-23T02:04:21;1.38;;;0.80;;
20729;SDS011;10526;50.850;12.928;2023-03-23T02:08:44;2.22;;;0.77;;
20729;SDS011;10526;50.850;12.928;2023-03-23T02:13:09;1.73;;;0.75;;
20729;SDS011;10526;50.850;12.928;2023-03-23T02:27:20;1.77;;;0.65;;
20729;SDS011;10526;50.850;12.928;2023-03-23T02:32:37;1.25;;;0.80;;
20729;SDS011;10526;50.850;12.928;2023-03-23T02:37:32;0.80;;;0.80;;
20729;SDS011;10526;50.850;12.928;2023-03-23T02:42:05;1.08;;;0.65;;
20729;SDS011;10526;50.850;12.928;2023-03-23T02:46:30;1.85;;;0.75;;
20729;SDS011;10526;50.850;12.928;2023-03-23T02:50:51;1.05;;;0.82;;
20729;SDS011;10526;50.850;12.928;2023-03-23T02:55:13;1.35;;;0.98;;
20729;SDS011;10526;50.850;12.928;2023-03-23T02:59:36;0.70;;;0.70;;
20729;SDS011;10526;50.850;12.928;2023-03-23T03:04:00;1.55;;;0.93;;
20729;SDS011;10526;50.850;12.928;2023-03-23T03:18:16;5.25;;;1.15;;
20729;SDS011;10526;50.850;12.928;2023-03-23T03:23:06;0.60;;;0.57;;
20729;SDS011;10526;50.850;12.928;2023-03-23T03:27:35;1.42;;;1.08;;
20729;SDS011;10526;50.850;12.928;2023-03-23T03:32:04;1.70;;;1.05;;
20729;SDS011;10526;50.850;12.928;2023-03-23T03:36:27;1.75;;;1.33;;
20729;SDS011;10526;50.850;12.928;2023-03-23T03:40:58;2.63;;;0.95;;
20729;SDS011;10526;50.850;12.928;2023-03-23T03:45:19;1.00;;;0.80;;
20729;SDS011;10526;50.850;12.928;2023-03-23T03:49:40;1.73;;;1.10;;
20729;SDS011;10526;50.850;12.928;2023-03-23T03:54:00;4.65;;;1.17;;
20729;SDS011;10526;50.850;12.928;2023-03-23T03:58:23;2.67;;;0.90;;
20729;SDS011;10526;50.850;12.928;2023-03-23T04:03:14;2.85;;;1.08;;
20729;SDS011;10526;50.850;12.928;2023-03-23T04:07:56;2.58;;;0.93;;
20729;SDS011;10526;50.850;12.928;2023-03-23T04:12:24;1.38;;;1.13;;
20729;SDS011;10526;50.850;12.928;2023-03-23T04:16:51;0.82;;;0.80;;
20729;SDS011;10526;50.850;12.928;2023-03-23T04:21:17;2.15;;;1.08;;
20729;SDS011;10526;50.850;12.928;2023-03-23T04:25:40;2.35;;;1.13;;
20729;SDS011;10526;50.850;12.928;2023-03-23T04:30:02;3.88;;;1.30;;
20729;SDS011;10526;50.850;12.928;2023-03-23T04:34:40;2.08;;;1.13;;
20729;SDS011;10526;50.850;12.928;2023-03-23T04:39:04;1.00;;;0.88;;
20729;SDS011;10526;50.850;12.928;2023-03-23T04:43:30;1.08;;;0.73;;
20729;SDS011;10526;50.850;12.928;2023-03-23T04:47:59;4.22;;;1.00;;
20729;SDS011;10526;50.850;12.928;2023-03-23T04:52:31;1.55;;;1.00;;
20729;SDS011;10526;50.850;12.928;2023-03-23T04:56:55;2.45;;;0.90;;
20729;SDS011;10526;50.850;12.928;2023-03-23T05:01:18;5.22;;;0.93;;
20729;SDS011;10526;50.850;12.928;2023-03-23T05:05:53;2.20;;;1.02;;
20729;SDS011;10526;50.850;12.928;2023-03-23T05:10:15;2.42;;;1.10;;
20729;SDS011;10526;50.850;12.928;2023-03-23T05:14:39;3.05;;;1.17;;
20729;SDS011;10526;50.850;12.928;2023-03-23T05:19:04;3.83;;;1.10;;
20729;SDS011;10526;50.850;12.928;2023-03-23T05:23:27;3.97;;;1.08;;
20729;SDS011;10526;50.850;12.928;2023-03-23T05:27:58;2.60;;;1.00;;
20729;SDS011;10526;50.850;12.928;2023-03-23T05:32:49;3.63;;;0.98;;
20729;SDS011;10526;50.850;12.928;2023-03-23T05:37:23;11.88;;;1.63;;
20729;SDS011;10526;50.850;12.928;2023-03-23T05:42:00;3.58;;;1.23;;
20729;SDS011;10526;50.850;12.928;2023-03-23T05:46:33;3.55;;;1.70;;
20729;SDS011;10526;50.850;12.928;2023-03-23T05:50:55;6.03;;;1.30;;
20729;SDS011;10526;50.850;12.928;2023-03-23T05:55:17;2.95;;;1.30;;
20729;SDS011;10526;50.850;12.928;2023-03-23T05:59:47;2.45;;;1.13;;
20729;SDS011;10526;50.850;12.928;2023-03-23T06:04:15;1.73;;;1.02;;
20729;SDS011;10526;50.850;12.928;2023-03-23T06:08:52;5.25;;;1.30;;
20729;SDS011;10526;50.850;12.928;2023-03-23T06:13:23;2.67;;;1.38;;
20729;SDS011;10526;50.850;12.928;2023-03-23T06:17:48;2.60;;;1.13;;
20729;SDS011;10526;50.850;12.928;2023-03-23T06:22:10;7.43;;;1.50;;
20729;SDS011;10526;50.850;12.928;2023-03-23T06:26:50;3.30;;;1.38;;
20729;SDS011;10526;50.850;12.928;2023-03-23T06:31:14;1.45;;;1.23;;
20729;SDS011;10526;50.850;12.928;2023-03-23T06:35:40;1.48;;;1.20;;
20729;SDS011;10526;50.850;12.928;2023-03-23T06:40:08;3.45;;;1.50;;
20729;SDS011;10526;50.850;12.928;2023-03-23T06:44:33;3.88;;;1.50;;
20729;SDS011;10526;50.850;12.928;2023-03-23T06:48:54;5.00;;;1.77;;
20729;SDS011;10526;50.850;12.928;2023-03-23T06:53:24;4.28;;;1.63;;
20729;SDS011;10526;50.850;12.928;2023-03-23T06:57:48;6.57;;;1.63;;
20729;SDS011;10526;50.850;12.928;2023-03-23T07:02:13;6.07;;;1.60;;
20729;SDS011;10526;50.850;12.928;2023-03-23T07:06:36;5.45;;;2.15;;
20729;SDS011;10526;50.850;12.928;2023-03-23T07:11:00;9.98;;;2.15;;
20729;SDS011;10526;50.850;12.928;2023-03-23T07:15:23;4.82;;;2.03;;
20729;SDS011;10526;50.850;12.928;2023-03-23T07:19:46;12.13;;;2.05;;
20729;SDS011;10526;50.850;12.928;2023-03-23T07:24:12;5.15;;;1.98;;
20729;SDS011;10526;50.850;12.928;2023-03-23T07:28:49;5.05;;;1.92;;
20729;SDS011;10526;50.850;12.928;2023-03-23T07:33:26;4.18;;;1.67;;
20729;SDS011;10526;50.850;12.928;2023-03-23T07:37:49;3.15;;;1.48;;
20729;SDS011;10526;50.850;12.928;2023-03-23T07:42:12;3.65;;;1.55;;
20729;SDS011;10526;50.850;12.928;2023-03-23T07:46:43;20.15;;;2.83;;
20729;SDS011;10526;50.850;12.928;2023-03-23T07:51:08;4.40;;;1.88;;
20729;SDS011;10526;50.850;12.928;2023-03-23T07:55:30;3.33;;;1.60;;
20729;SDS011;10526;50.850;12.928;2023-03-23T07:59:58;6.60;;;1.60;;
20729;SDS011;10526;50.850;12.928;2023-03-23T08:04:21;2.95;;;1.60;;
20729;SDS011;10526;50.850;12.928;2023-03-23T08:09:07;6.55;;;2.20;;
20729;SDS011;10526;50.850;12.928;2023-03-23T08:14:01;8.52;;;2.00;;
20729;SDS011;10526;50.850;12.928;2023-03-23T08:18:37;7.82;;;2.10;;
20729;SDS011;10526;50.850;12.928;2023-03-23T08:23:17;4.35;;;1.80;;
20729;SDS011;10526;50.850;12.928;2023-03-23T08:27:55;8.15;;;2.15;;
20729;SDS011;10526;50.850;12.928;2023-03-23T08:32:35;5.88;;;2.03;;
20729;SDS011;10526;50.850;12.928;2023-03-23T08:37:22;3.03;;;1.40;;
20729;SDS011;10526;50.850;12.928;2023-03-23T08:42:01;3.42;;;1.20;;
20729;SDS011;10526;50.850;12.928;2023-03-23T08:46:48;10.95;;;1.50;;
20729;SDS011;10526;50.850;12.928;2023-03-23T08:51:48;5.07;;;2.00;;
20729;SDS011;10526;50.850;12.928;2023-03-23T08:56:24;4.43;;;1.75;;
20729;SDS011;10526;50.850;12.928;2023-03-23T09:01:04;8.38;;;2.00;;
20729;SDS011;10526;50.850;12.928;2023-03-23T09:05:37;4.80;;;2.05;;
20729;SDS011;10526;50.850;12.928;2023-03-23T09:10:20;4.78;;;1.67;;
20729;SDS011;10526;50.850;12.928;2023-03-23T09:14:42;2.90;;;1.48;;
20729;SDS011;10526;50.850;12.928;2023-03-23T09:19:03;5.78;;;1.48;;
20729;SDS011;10526;50.850;12.928;2023-03-23T09:23:24;2.90;;;1.45;;
20729;SDS011;10526;50.850;12.928;2023-03-23T09:27:45;9.00;;;2.00;;
20729;SDS011;10526;50.850;12.928;2023-03-23T09:32:11;7.60;;;2.22;;
20729;SDS011;10526;50.850;12.928;2023-03-23T09:36:33;5.35;;;2.08;;
20729;SDS011;10526;50.850;12.928;2023-03-23T09:40:56;4.78;;;1.95;;
20729;SDS011;10526;50.850;12.928;2023-03-23T09:46:00;3.90;;;1.90;;
20729;SDS011;10526;50.850;12.928;2023-03-23T09:50:28;5.00;;;2.17;;
20729;SDS011;10526;50.850;12.928;2023-03-23T09:54:53;3.30;;;1.63;;
20729;SDS011;10526;50.850;12.928;2023-03-23T09:59:19;4.03;;;1.50;;
20729;SDS011;10526;50.850;12.928;2023-03-23T10:04:07;4.57;;;1.60;;
20729;SDS011;10526;50.850;12.928;2023-03-23T10:08:41;3.85;;;1.60;;
20729;SDS011;10526;50.850;12.928;2023-03-23T10:18:35;4.68;;;1.90;;
20729;SDS011;10526;50.850;12.928;2023-03-23T10:23:20;3.60;;;1.50;;
20729;SDS011;10526;50.850;12.928;2023-03-23T10:28:16;14.60;;;1.92;;
20729;SDS011;10526;50.850;12.928;2023-03-23T10:32:50;1.67;;;0.95;;
20729;SDS011;10526;50.850;12.928;2023-03-23T10:38:00;4.32;;;1.17;;
20729;SDS011;10526;50.850;12.928;2023-03-23T10:42:04;5.97;;;1.55;;
20729;SDS011;10526;50.850;12.928;2023-03-23T10:46:37;3.42;;;1.60;;
20729;SDS011;10526;50.850;12.928;2023-03-23T10:51:13;5.18;;;1.60;;
20729;SDS011;10526;50.850;12.928;2023-03-23T10:55:41;3.95;;;1.80;;
20729;SDS011;10526;50.850;12.928;2023-03-23T11:00:05;6.28;;;1.65;;
20729;SDS011;10526;50.850;12.928;2023-03-23T11:04:35;3.85;;;1.90;;
20729;SDS011;10526;50.850;12.928;2023-03-23T11:09:32;5.75;;;1.50;;
20729;SDS011;10526;50.850;12.928;2023-03-23T11:18:24;11.77;;;1.45;;
20729;SDS011;10526;50.850;12.928;2023-03-23T11:22:57;7.93;;;1.65;;
20729;SDS011;10526;50.850;12.928;2023-03-23T11:27:18;6.65;;;1.52;;
20729;SDS011;10526;50.850;12.928;2023-03-23T11:31:48;5.22;;;1.55;;
20729;SDS011;10526;50.850;12.928;2023-03-23T11:36:21;30.38;;;3.60;;
20729;SDS011;10526;50.850;12.928;2023-03-23T11:40:56;34.25;;;3.10;;
20729;SDS011;10526;50.850;12.928;2023-03-23T11:45:33;4.78;;;1.77;;
20729;SDS011;10526;50.850;12.928;2023-03-23T11:54:36;3.35;;;1.50;;
20729;SDS011;10526;50.850;12.928;2023-03-23T11:59:14;4.82;;;1.38;;
20729;SDS011;10526;50.850;12.928;2023-03-23T12:08:30;4.25;;;1.55;;
20729;SDS011;10526;50.850;12.928;2023-03-23T12:13:34;2.85;;;1.20;;
20729;SDS011;10526;50.850;12.928;2023-03-23T12:18:37;4.53;;;1.08;;
20729;SDS011;10526;50.850;12.928;2023-03-23T12:23:20;5.32;;;1.65;;
20729;SDS011;10526;50.850;12.928;2023-03-23T12:27:55;1.20;;;1.08;;
20729;SDS011;10526;50.850;12.928;2023-03-23T12:32:49;27.55;;;2.08;;
20729;SDS011;10526;50.850;12.928;2023-03-23T12:37:25;2.47;;;1.52;;
20729;SDS011;10526;50.850;12.928;2023-03-23T12:42:11;5.03;;;1.88;;
20729;SDS011;10526;50.850;12.928;2023-03-23T12:47:21;5.13;;;1.90;;
20729;SDS011;10526;50.850;12.928;2023-03-23T12:52:01;3.10;;;1.30;;
20729;SDS011;10526;50.850;12.928;2023-03-23T13:01:37;37.72;;;3.30;;
20729;SDS011;10526;50.850;12.928;2023-03-23T13:10:36;3.03;;;1.42;;
20729;SDS011;10526;50.850;12.928;2023-03-23T13:24:53;5.60;;;1.73;;
20729;SDS011;10526;50.850;12.928;2023-03-23T13:29:21;2.95;;;1.63;;
20729;SDS011;10526;50.850;12.928;2023-03-23T13:33:49;3.78;;;1.60;;
20729;SDS011;10526;50.850;12.928;2023-03-23T13:38:18;3.00;;;1.75;;
20729;SDS011;10526;50.850;12.928;2023-03-23T13:42:54;4.68;;;1.90;;
20729;SDS011;10526;50.850;12.928;2023-03-23T13:56:13;4.50;;;1.98;;
20729;SDS011;10526;50.850;12.928;2023-03-23T14:00:46;7.15;;;1.80;;
20729;SDS011;10526;50.850;12.928;2023-03-23T14:09:55;3.63;;;1.80;;
20729;SDS011;10526;50.850;12.928;2023-03-23T14:14:27;4.68;;;1.73;;
20729;SDS011;10526;50.850;12.928;2023-03-23T14:18:53;3.42;;;1.70;;
20729;SDS011;10526;50.850;12.928;2023-03-23T14:23:22;4.13;;;1.80;;
20729;SDS011;10526;50.850;12.928;2023-03-23T14:27:43;4.80;;;1.60;;
20729;SDS011;10526;50.850;12.928;2023-03-23T14:32:06;3.05;;;1.35;;
20729;SDS011;10526;50.850;12.928;2023-03-23T14:36:38;3.58;;;1.58;;
20729;SDS011;10526;50.850;12.928;2023-03-23T14:41:00;4.43;;;1.63;;
20729;SDS011;10526;50.850;12.928;2023-03-23T14:45:24;35.38;;;3.42;;
20729;SDS011;10526;50.850;12.928;2023-03-23T14:49:45;6.57;;;1.48;;
20729;SDS011;10526;50.850;12.928;2023-03-23T14:54:07;2.35;;;1.10;;
20729;SDS011;10526;50.850;12.928;2023-03-23T14:58:31;7.00;;;1.30;;
20729;SDS011;10526;50.850;12.928;2023-03-23T15:02:53;2.88;;;1.08;;
20729;SDS011;10526;50.850;12.928;2023-03-23T15:07:17;1.73;;;0.90;;
20729;SDS011;10526;50.850;12.928;2023-03-23T15:11:39;3.03;;;1.05;;
20729;SDS011;10526;50.850;12.928;2023-03-23T15:16:11;2.63;;;0.90;;
20729;SDS011;10526;50.850;12.928;2023-03-23T15:20:56;2.40;;;1.02;;
20729;SDS011;10526;50.850;12.928;2023-03-23T15:25:21;1.02;;;0.60;;
20729;SDS011;10526;50.850;12.928;2023-03-23T15:29:52;3.13;;;1.15;;
20729;SDS011;10526;50.850;12.928;2023-03-23T15:34:27;2.10;;;1.00;;
20729;SDS011;10526;50.850;12.928;2023-03-23T15:38:54;2.33;;;1.02;;
20729;SDS011;10526;50.850;12.928;2023-03-23T15:43:20;2.92;;;1.35;;
20729;SDS011;10526;50.850;12.928;2023-03-23T15:47:53;0.90;;;0.82;;
20729;SDS011;10526;50.850;12.928;2023-03-23T15:52:33;2.75;;;1.00;;
20729;SDS011;10526;50.850;12.928;2023-03-23T15:56:54;1.48;;;0.93;;
20729;SDS011;10526;50.850;12.928;2023-03-23T16:01:17;1.40;;;1.05;;
20729;SDS011;10526;50.850;12.928;2023-03-23T16:05:44;1.02;;;0.77;;
20729;SDS011;10526;50.850;12.928;2023-03-23T16:10:06;3.78;;;1.00;;
20729;SDS011;10526;50.850;12.928;2023-03-23T16:14:37;2.17;;;0.80;;
20729;SDS011;10526;50.850;12.928;2023-03-23T16:19:00;0.40;;;0.40;;
20729;SDS011;10526;50.850;12.928;2023-03-23T16:23:22;3.47;;;1.10;;
20729;SDS011;10526;50.850;12.928;2023-03-23T16:27:45;2.65;;;1.17;;
20729;SDS011;10526;50.850;12.928;2023-03-23T16:32:12;2.15;;;0.82;;
20729;SDS011;10526;50.850;12.928;2023-03-23T16:36:34;4.75;;;1.30;;
20729;SDS011;10526;50.850;12.928;2023-03-23T16:40:56;1.95;;;1.15;;
20729;SDS011;10526;50.850;12.928;2023-03-23T16:45:19;1.77;;;1.05;;
20729;SDS011;10526;50.850;12.928;2023-03-23T16:49:41;3.25;;;0.90;;
20729;SDS011;10526;50.850;12.928;2023-03-23T16:54:03;3.38;;;1.52;;
20729;SDS011;10526;50.850;12.928;2023-03-23T16:58:26;1.83;;;1.05;;
20729;SDS011;10526;50.850;12.928;2023-03-23T17:02:49;2.67;;;1.23;;
20729;SDS011;10526;50.850;12.928;2023-03-23T17:07:12;3.50;;;1.58;;
20729;SDS011;10526;50.850;12.928;2023-03-23T17:11:34;1.95;;;1.17;;
20729;SDS011;10526;50.850;12.928;2023-03-23T17:15:56;8.75;;;1.75;;
20729;SDS011;10526;50.850;12.928;2023-03-23T17:20:18;2.17;;;1.10;;
20729;SDS011;10526;50.850;12.928;2023-03-23T17:24:41;3.20;;;1.20;;
20729;SDS011;10526;50.850;12.928;2023-03-23T17:29:03;6.97;;;1.40;;
20729;SDS011;10526;50.850;12.928;2023-03-23T17:33:25;2.90;;;1.25;;
20729;SDS011;10526;50.850;12.928;2023-03-23T17:37:47;4.07;;;1.55;;
20729;SDS011;10526;50.850;12.928;2023-03-23T17:42:10;13.80;;;2.60;;
20729;SDS011;10526;50.850;12.928;2023-03-23T17:46:31;4.63;;;2.08;;
20729;SDS011;10526;50.850;12.928;2023-03-23T17:50:54;6.65;;;2.38;;
20729;SDS011;10526;50.850;12.928;2023-03-23T17:55:20;6.28;;;2.30;;
20729;SDS011;10526;50.850;12.928;2023-03-23T17:59:42;8.38;;;3.22;;
20729;SDS011;10526;50.850;12.928;2023-03-23T18:04:04;4.30;;;2.00;;
20729;SDS011;10526;50.850;12.928;2023-03-23T18:08:26;9.20;;;2.88;;
20729;SDS011;10526;50.850;12.928;2023-03-23T18:12:48;9.25;;;3.45;;
20729;SDS011;10526;50.850;12.928;2023-03-23T18:17:13;8.50;;;2.45;;
20729;SDS011;10526;50.850;12.928;2023-03-23T18:21:35;7.45;;;2.78;;
20729;SDS011;10526;50.850;12.928;2023-03-23T18:25:57;6.40;;;1.73;;
20729;SDS011;10526;50.850;12.928;2023-03-23T18:30:19;5.95;;;1.98;;
20729;SDS011;10526;50.850;12.928;2023-03-23T18:34:41;7.22;;;2.28;;
20729;SDS011;10526;50.850;12.928;2023-03-23T18:39:03;4.03;;;2.10;;
20729;SDS011;10526;50.850;12.928;2023-03-23T18:43:26;6.80;;;2.20;;
20729;SDS011;10526;50.850;12.928;2023-03-23T18:47:48;10.02;;;2.80;;
20729;SDS011;10526;50.850;12.928;2023-03-23T18:52:12;3.90;;;2.08;;
20729;SDS011;10526;50.850;12.928;2023-03-23T18:56:34;6.00;;;2.13;;
20729;SDS011;10526;50.850;12.928;2023-03-23T19:00:57;5.90;;;1.25;;
20729;SDS011;10526;50.850;12.928;2023-03-23T19:05:27;6.25;;;1.85;;
20729;SDS011;10526;50.850;12.928;2023-03-23T19:09:49;4.15;;;1.63;;
20729;SDS011;10526;50.850;12.928;2023-03-23T19:14:11;2.70;;;1.45;;
20729;SDS011;10526;50.850;12.928;2023-03-23T19:18:33;3.60;;;1.70;;
20729;SDS011;10526;50.850;12.928;2023-03-23T19:22:55;3.90;;;1.38;;
20729;SDS011;10526;50.850;12.928;2023-03-23T19:27:17;7.70;;;2.05;;
20729;SDS011;10526;50.850;12.928;2023-03-23T19:31:41;1.98;;;1.30;;
20729;SDS011;10526;50.850;12.928;2023-03-23T19:36:06;3.40;;;1.65;;
20729;SDS011;10526;50.850;12.928;2023-03-23T19:40:34;2.42;;;1.33;;
20729;SDS011;10526;50.850;12.928;2023-03-23T19:45:11;3.08;;;1.02;;
20729;SDS011;10526;50.850;12.928;2023-03-23T19:49:33;2.50;;;1.20;;
20729;SDS011;10526;50.850;12.928;2023-03-23T19:53:56;3.50;;;1.63;;
20729;SDS011;10526;50.850;12.928;2023-03-23T19:58:18;1.80;;;1.27;;
20729;SDS011;10526;50.850;12.928;2023-03-23T20:02:41;3.17;;;1.27;;
20729;SDS011;10526;50.850;12.928;2023-03-23T20:07:03;3.10;;;1.42;;
20729;SDS011;10526;50.850;12.928;2023-03-23T20:11:28;3.67;;;1.38;;
20729;SDS011;10526;50.850;12.928;2023-03-23T20:15:51;1.45;;;1.05;;
20729;SDS011;10526;50.850;12.928;2023-03-23T20:20:13;3.50;;;1.63;;
20729;SDS011;10526;50.850;12.928;2023-03-23T20:24:35;6.05;;;1.98;;
20729;SDS011;10526;50.850;12.928;2023-03-23T20:28:58;3.65;;;1.40;;
20729;SDS011;10526;50.850;12.928;2023-03-23T20:33:21;2.47;;;1.08;;
20729;SDS011;10526;50.850;12.928;2023-03-23T20:37:43;2.58;;;1.65;;
20729;SDS011;10526;50.850;12.928;2023-03-23T20:42:05;2.88;;;1.48;;
20729;SDS011;10526;50.850;12.928;2023-03-23T20:46:28;5.28;;;1.77;;
20729;SDS011;10526;50.850;12.928;2023-03-23T20:50:50;2.00;;;1.27;;
20729;SDS011;10526;50.850;12.928;2023-03-23T20:55:11;2.53;;;1.20;;
20729;SDS011;10526;50.850;12.928;2023-03-23T20:59:35;3.45;;;1.25;;
20729;SDS011;10526;50.850;12.928;2023-03-23T21:03:57;4.40;;;1.48;;
20729;SDS011;10526;50.850;12.928;2023-03-23T21:08:20;3.97;;;1.52;;
20729;SDS011;10526;50.850;12.928;2023-03-23T21:12:42;2.42;;;1.17;;
20729;SDS011;10526;50.850;12.928;2023-03-23T21:17:04;4.03;;;1.58;;
20729;SDS011;10526;50.850;12.928;2023-03-23T21:21:28;7.03;;;1.55;;
20729;SDS011;10526;50.850;12.928;2023-03-23T21:25:49;2.50;;;1.52;;
20729;SDS011;10526;50.850;12.928;2023-03-23T21:30:11;7.00;;;1.60;;
20729;SDS011;10526;50.850;12.928;2023-03-23T21:34:33;3.30;;;1.80;;
20729;SDS011;10526;50.850;12.928;2023-03-23T21:38:56;5.40;;;1.52;;
20729;SDS011;10526;50.850;12.928;2023-03-23T21:43:18;4.53;;;1.77;;
20729;SDS011;10526;50.850;12.928;2023-03-23T21:47:47;2.63;;;1.60;;
20729;SDS011;10526;50.850;12.928;2023-03-23T21:52:10;4.43;;;1.83;;
20729;SDS011;10526;50.850;12.928;2023-03-23T21:56:32;2.50;;;1.50;;
20729;SDS011;10526;50.850;12.928;2023-03-23T22:00:54;4.47;;;2.15;;
20729;SDS011;10526;50.850;12.928;2023-03-23T22:05:19;3.40;;;1.65;;
20729;SDS011;10526;50.850;12.928;2023-03-23T22:09:41;2.38;;;1.60;;
20729;SDS011;10526;50.850;12.928;2023-03-23T22:14:04;2.95;;;1.63;;
20729;SDS011;10526;50.850;12.928;2023-03-23T22:18:27;3.60;;;1.67;;
20729;SDS011;10526;50.850;12.928;2023-03-23T22:22:49;5.03;;;1.70;;
20729;SDS011;10526;50.850;12.928;2023-03-23T22:27:13;4.20;;;2.05;;
20729;SDS011;10526;50.850;12.928;2023-03-23T22:31:35;6.88;;;2.13;;
20729;SDS011;10526;50.850;12.928;2023-03-23T22:36:00;5.70;;;1.92;;
20729;SDS011;10526;50.850;12.928;2023-03-23T22:40:26;4.10;;;1.83;;
20729;SDS011;10526;50.850;12.928;2023-03-23T22:44:49;4.90;;;1.92;;
20729;SDS011;10526;50.850;12.928;2023-03-23T22:49:11;7.03;;;1.92;;
20729;SDS011;10526;50.850;12.928;2023-03-23T22:53:33;3.10;;;1.65;;
20729;SDS011;10526;50.850;12.928;2023-03-23T22:57:55;4.50;;;1.73;;
20729;SDS011;10526;50.850;12.928;2023-03-23T23:02:17;4.60;;;2.30;;
20729;SDS011;10526;50.850;12.928;2023-03-23T23:06:39;7.28;;;2.20;;
20729;SDS011;10526;50.850;12.928;2023-03-23T23:11:01;6.90;;;2.20;;
20729;SDS011;10526;50.850;12.928;2023-03-23T23:15:24;6.10;;;1.98;;
20729;SDS011;10526;50.850;12.928;2023-03-23T23:19:46;5.18;;;1.80;;
20729;SDS011;10526;50.850;12.928;2023-03-23T23:24:08;11.32;;;2.17;;
20729;SDS011;10526;50.850;12.928;2023-03-23T23:28:30;3.90;;;1.80;;
20729;SDS011;10526;50.850;12.928;2023-03-23T23:32:52;5.07;;;1.52;;
20729;SDS011;10526;50.850;12.928;2023-03-23T23:37:15;4.43;;;1.80;;
20729;SDS011;10526;50.850;12.928;2023-03-23T23:41:37;6.45;;;2.53;;
20729;SDS011;10526;50.850;12.928;2023-03-23T23:45:59;4.40;;;1.83;;
20729;SDS011;10526;50.850;12.928;2023-03-23T23:50:21;3.45;;;1.77;;
20729;SDS011;10526;50.850;12.928;2023-03-23T23:54:43;4.40;;;1.92;;
20729;SDS011;10526;50.850;12.928;2023-03-23T23:59:07;6.20;;;1.90;;
